M I D A S
Marine Information and Data Acquisition System
Tripno 1205 of the Zeeleeuw from 2007-01-24 08:53:16 to 2007-01-24 15:26:34
Back to CruiseResearch ActivitiesStationsMapUnderway DataData graphs

EquipmentUnitsComment
TimeDGPSUTC
LatitudeDGPSDM.mWGS84
LongitudeDGPSDM.mWGS84
TemperatureSBE03/SBE38deg celciusITS90
ConductivitySBE21S/mITS90
SalinitySBE21 Practical Salinity Units
ChlorophylAChelsea fluorimeterg/lCalibrated in Aceton
Missing or incorrect values are displayed as -999
Sea surface data collected by the RV Zeeleeuw from 2007-01-24 08:08:57 to 2007-01-24 15:40:08
Time Latitude Longitude Temperature Conductivity Salinity ChlorophylA
2007-01-24 08:10:02 51°13.598 2°56.09 15.4215 1.346726 9.217218 -2.871232
2007-01-24 08:11:02 51°13.598 2°56.086 15.4419 1.346829 9.217581 -2.871232
2007-01-24 08:12:01 51°13.599 2°56.096 15.4611 1.346932 9.217746 -2.871232
2007-01-24 08:13:01 51°13.598 2°56.092 15.4807 1.347035 9.218309 -2.871232
2007-01-24 08:14:02 51°13.598 2°56.093 15.4866 1.347138 9.218673 -2.871232
2007-01-24 08:15:02 51°13.597 2°56.093 15.5223 1.347138 9.218273 -2.871232
2007-01-24 08:16:02 51°13.598 2°56.094 15.5475 1.347241 9.218637 -2.871232
2007-01-24 08:17:02 51°13.596 2°56.097 15.5963 1.347344 9.219201 -2.871232
2007-01-24 08:18:02 51°13.597 2°56.097 15.6184 1.347447 9.219565 -2.871232
2007-01-24 08:19:01 51°13.599 2°56.093 15.6066 1.347551 9.220128 -2.871232
2007-01-24 08:20:02 51°13.6 2°56.092 15.6525 1.347551 9.219729 -2.871232
2007-01-24 08:21:02 51°13.6 2°56.094 15.6669 1.347654 9.220292 -2.871232
2007-01-24 08:22:02 51°13.6 2°56.091 15.6726 1.347757 9.220656 -2.871232
2007-01-24 08:23:01 51°13.601 2°56.091 15.7047 1.347757 9.220456 -2.871232
2007-01-24 08:24:02 51°13.599 2°56.096 15.7262 1.34786 9.22102 -2.871232
2007-01-24 08:25:02 51°13.601 2°56.092 15.7503 1.347963 9.221583 -2.871232
2007-01-24 08:26:02 51°13.6 2°56.092 15.7489 1.347963 9.221184 -2.871232
2007-01-24 08:27:02 51°13.6 2°56.093 15.7797 1.348066 9.221747 -2.871232
2007-01-24 08:28:02 51°13.6 2°56.093 15.7979 1.348066 9.221547 -2.871232
2007-01-24 08:29:02 51°13.599 2°56.093 15.8271 1.348169 9.222311 -2.871232
2007-01-24 08:30:02 51°13.599 2°56.094 15.8608 1.348169 9.222111 -2.871232
2007-01-24 08:31:02 51°13.599 2°56.094 15.8884 1.348272 9.222674 -2.871232
2007-01-24 08:32:02 51°13.6 2°56.093 15.91 1.348272 9.222674 -2.871232
2007-01-24 08:33:02 51°13.6 2°56.092 15.9403 1.348272 9.222474 -2.871232
2007-01-24 08:34:02 51°13.6 2°56.091 15.9206 1.348375 9.223038 -2.871232
2007-01-24 08:35:02 51°13.599 2°56.092 15.9782 1.348478 9.223801 -2.871232
2007-01-24 08:36:02 51°13.598 2°56.094 16.0151 1.348478 9.223601 -2.871232
2007-01-24 08:37:02 51°13.597 2°56.095 16.028 1.348581 9.224165 -2.871232
2007-01-24 08:38:02 51°13.598 2°56.094 16.0459 1.348581 9.224365 -2.871232
2007-01-24 08:39:01 51°13.598 2°56.093 16.056 1.348581 9.224365 -2.871232
2007-01-24 08:40:02 51°13.598 2°56.093 16.1002 1.348581 9.224165 -2.871232
2007-01-24 08:41:02 51°13.598 2°56.093 16.1197 1.348581 9.224165 -2.871232
2007-01-24 08:42:02 51°13.598 2°56.091 16.1365 1.348685 9.224928 -2.871232
2007-01-24 08:43:02 51°13.6 2°56.091 16.1613 1.348685 9.224928 -2.871232
2007-01-24 08:44:01 51°13.599 2°56.09 16.1779 1.348685 9.224928 -2.871232
2007-01-24 08:45:01 51°13.601 2°56.091 16.1923 1.348685 9.224928 -2.871232
2007-01-24 08:46:01 51°13.599 2°56.091 16.3255 1.348685 9.224728 -2.871232
2007-01-24 08:47:01 51°13.6 2°56.091 16.3019 1.348685 9.224728 -2.871232
2007-01-24 08:48:01 51°13.6 2°56.092 16.3098 1.348685 9.224728 -2.871232
2007-01-24 08:49:01 51°13.6 2°56.093 16.3285 1.348581 9.223965 -2.871232
2007-01-24 08:50:01 51°13.599 2°56.092 16.3613 1.348581 9.223965 -2.871232
2007-01-24 08:51:01 51°13.599 2°56.093 16.3607 1.348581 9.223965 -2.871232
2007-01-24 08:52:01 51°13.599 2°56.093 16.3514 1.348581 9.223765 -2.871232
2007-01-24 08:53:01 51°13.598 2°56.092 16.3835 1.348478 9.223002 -2.871232
2007-01-24 08:54:01 51°13.598 2°56.094 16.4662 1.348478 9.223202 -2.871232
2007-01-24 08:55:01 51°13.598 2°56.094 16.4438 1.348478 9.222802 -2.871232
2007-01-24 08:56:01 51°13.597 2°56.092 16.4688 1.348891 9.225855 -2.871232
2007-01-24 08:57:01 51°13.611 2°56.045 16.5892 1.348685 9.224328 -2.871232
2007-01-24 08:58:01 51°13.644 2°55.942 16.5713 1.348581 9.223365 -2.871232
2007-01-24 08:59:01 51°13.679 2°55.838 16.5647 1.348478 9.222203 -2.871232
2007-01-24 09:00:01 51°13.699 2°55.756 16.5522 1.348478 9.222003 -2.871232
2007-01-24 09:01:01 51°13.708 2°55.746 16.5661 1.348375 9.22104 -2.871232
2007-01-24 09:02:01 51°13.707 2°55.734 16.6013 1.348375 9.22084 -2.871232
2007-01-24 09:03:01 51°13.733 2°55.731 16.6515 1.348375 9.22064 -2.871232
2007-01-24 09:04:01 51°13.764 2°55.703 7.6629 3.074026 20.169407 -2.871232
2007-01-24 09:05:01 51°13.794 2°55.677 7.4754 2.523641 22.577117 -2.871232
2007-01-24 09:06:01 51°13.822 2°55.65 7.4731 2.911128 26.613391 -2.871232
2007-01-24 09:07:01 51°13.848 2°55.628 7.4807 2.962948 27.105714 -2.871232
2007-01-24 09:08:01 51°13.861 2°55.619 7.5831 2.916197 26.709421 -2.871232
2007-01-24 09:09:01 51°13.871 2°55.613 7.6979 3.070434 28.153732 -2.871232
2007-01-24 09:10:01 51°13.884 2°55.605 7.7136 3.130757 28.728462 -2.871232
2007-01-24 09:11:01 51°13.888 2°55.604 7.7236 3.14007 28.812663 -2.871232
2007-01-24 09:12:01 51°13.899 2°55.598 7.6959 3.142036 28.842121 -2.871232
2007-01-24 09:13:01 51°13.925 2°55.579 7.7193 3.152488 28.954593 -2.871232
2007-01-24 09:14:01 51°13.945 2°55.563 7.684 3.110062 28.525679 -2.871232
2007-01-24 09:15:01 51°13.963 2°55.55 7.6123 3.066916 28.135137 -2.871232
2007-01-24 09:16:01 51°13.994 2°55.528 7.5628 3.021189 27.731781 -2.871232
2007-01-24 09:17:01 51°14.091 2°55.451 7.5554 2.96388 27.201304 -2.871232
2007-01-24 09:18:01 51°14.23 2°55.316 7.5567 3.000498 27.51461 -2.871232
2007-01-24 09:19:01 51°14.348 2°55.101 7.5087 2.938849 26.980805 -2.871232
2007-01-24 09:20:01 51°14.444 2°54.829 7.5353 3.099717 28.574809 -2.871232
2007-01-24 09:21:01 51°14.429 2°54.495 7.7495 3.316333 30.735716 -2.871232
2007-01-24 09:22:01 51°14.334 2°54.185 7.8234 3.395325 31.453746 -2.871232
2007-01-24 09:23:02 51°14.222 2°53.878 7.8051 3.413547 31.548985 -2.871232
2007-01-24 09:24:02 51°14.11 2°53.573 7.7137 3.411683 31.537668 -2.871232
2007-01-24 09:25:02 51°13.995 2°53.27 7.6305 3.365611 31.199298 -2.871232
2007-01-24 09:26:02 51°13.881 2°52.965 7.6515 3.381969 31.390883 -2.871232
2007-01-24 09:27:02 51°13.769 2°52.66 7.791 3.391494 31.416114 -2.871232
2007-01-24 09:28:02 51°13.653 2°52.348 7.845 3.414582 31.565669 -2.871232
2007-01-24 09:29:02 51°13.532 2°52.014 7.7948 3.411683 31.51949 -2.871232
2007-01-24 09:30:02 51°13.414 2°51.671 7.8426 3.40661 31.490831 -2.871232
2007-01-24 09:31:02 51°13.293 2°51.328 7.7729 3.41334 31.524358 -2.871232
2007-01-24 09:32:02 51°13.174 2°50.985 7.8453 3.417067 31.582485 -2.871232
2007-01-24 09:33:02 51°13.055 2°50.64 7.6959 3.415411 31.61845 -2.871232
2007-01-24 09:34:02 51°12.935 2°50.296 7.7949 3.398328 31.554992 -2.871232
2007-01-24 09:35:02 51°12.811 2°49.958 7.7841 3.414583 31.635174 -2.871232
2007-01-24 09:36:01 51°12.69 2°49.624 7.7581 3.421106 31.666501 -2.871232
2007-01-24 09:37:02 51°12.564 2°49.279 7.711 3.417172 31.660913 -2.871232
2007-01-24 09:38:02 51°12.439 2°48.941 7.8802 3.420382 31.683448 -2.871232
2007-01-24 09:39:02 51°12.315 2°48.602 7.7825 3.438501 31.779702 -2.871232
2007-01-24 09:40:02 51°12.191 2°48.262 7.869 3.436741 31.803531 -2.871232
2007-01-24 09:41:02 51°12.065 2°47.925 7.8598 3.438398 31.797833 -2.871232
2007-01-24 09:42:02 51°11.941 2°47.588 7.9595 3.454241 31.914931 -2.871232
2007-01-24 09:43:02 51°11.817 2°47.25 7.8629 3.460557 31.948193 -2.871232
2007-01-24 09:44:02 51°11.698 2°46.909 8.0252 3.466149 32.009015 -2.871232
2007-01-24 09:45:02 51°11.582 2°46.568 8.1164 3.493694 32.178773 -2.871232
2007-01-24 09:46:02 51°11.526 2°46.189 8.1116 3.50726 32.262983 -2.871232
2007-01-24 09:47:02 51°11.463 2°45.809 8.0092 3.510782 32.292803 -2.871232
2007-01-24 09:48:02 51°11.396 2°45.429 8.0822 3.495041 32.220687 -2.871232
2007-01-24 09:49:02 51°11.331 2°45.05 7.998 3.509229 32.315669 -2.871232
2007-01-24 09:50:02 51°11.268 2°44.671 7.9332 3.496077 32.270082 -2.871232
2007-01-24 09:51:02 51°11.203 2°44.293 7.9373 3.494006 32.27622 -2.871232
2007-01-24 09:52:01 51°11.141 2°43.922 8.0664 3.503533 32.321775 -2.871232
2007-01-24 09:53:02 51°11.075 2°43.537 8.1414 3.523521 32.430939 -2.871232
2007-01-24 09:54:02 51°11.01 2°43.161 8.2355 3.542162 32.517076 -2.871232
2007-01-24 09:55:02 51°10.945 2°42.783 8.2482 3.548997 32.553213 -2.871232
2007-01-24 09:56:02 51°10.882 2°42.405 8.2671 3.554694 32.581226 -2.871232
2007-01-24 09:57:02 51°10.825 2°42.026 8.309 3.560494 32.612907 -2.871232
2007-01-24 09:58:02 51°10.769 2°41.646 8.3225 3.563912 32.632679 -2.871232
2007-01-24 09:59:02 51°10.713 2°41.266 8.3393 3.568469 32.662261 -2.871232
2007-01-24 10:00:02 51°10.658 2°40.884 8.3578 3.573233 32.690393 -2.871232
2007-01-24 10:01:02 51°10.602 2°40.504 8.3534 3.57603 32.70822 -2.871232
2007-01-24 10:02:02 51°10.548 2°40.131 8.2428 3.570333 32.683882 -2.871232
2007-01-24 10:03:02 51°10.501 2°39.883 7.9313 3.55428 32.599099 -2.871232
2007-01-24 10:04:02 51°10.464 2°39.803 8.0884 3.477851 32.157203 -2.871232
2007-01-24 10:05:02 51°10.466 2°39.772 8.3246 3.539469 32.510803 -2.871232
2007-01-24 10:06:02 51°10.467 2°39.741 8.3502 3.562255 32.640557 -2.871232
2007-01-24 10:07:02 51°10.464 2°39.714 8.3509 3.579552 32.740487 -2.871232
2007-01-24 10:08:02 51°10.454 2°39.686 8.0909 3.558526 32.612308 -2.871232
2007-01-24 10:09:02 51°10.414 2°39.649 8.1202 3.538641 32.505881 -2.871232
2007-01-24 10:10:02 51°10.356 2°39.56 7.8331 3.491417 32.224077 -2.871232
2007-01-24 10:11:02 51°10.312 2°39.444 8.112 3.502394 32.297744 -2.871232
2007-01-24 10:12:02 51°10.27 2°39.328 8.1661 3.534809 32.47295 -2.871232
2007-01-24 10:13:02 51°10.24 2°39.222 8.1595 3.534912 32.467828 -2.871232
2007-01-24 10:14:02 51°10.211 2°39.132 8.1885 3.537708 32.479592 -2.871232
2007-01-24 10:15:01 51°10.191 2°39.057 8.0062 3.510264 32.303353 -2.871232
2007-01-24 10:16:02 51°10.175 2°38.989 7.8806 3.508193 32.283062 -2.871232
2007-01-24 10:17:02 51°10.162 2°38.927 8.0093 3.450928 31.934355 -2.871232
2007-01-24 10:18:02 51°10.149 2°38.867 8.006 3.503636 32.268156 -2.871232
2007-01-24 10:19:02 51°10.133 2°38.802 8.2192 3.478369 32.114094 -2.871232
2007-01-24 10:20:02 51°10.11 2°38.727 8.1708 3.530873 32.430138 -2.871232
2007-01-24 10:21:02 51°10.088 2°38.647 8.1149 3.534394 32.455486 -2.871232
2007-01-24 10:22:02 51°10.065 2°38.568 8.1351 3.51772 32.339038 -2.871232
2007-01-24 10:23:02 51°10.043 2°38.489 8.0698 3.522691 32.365141 -2.871232
2007-01-24 10:24:02 51°10.022 2°38.41 7.8124 3.521966 32.361263 -2.871232
2007-01-24 10:25:02 51°10 2°38.332 8.0514 3.459521 31.930584 -2.871232
2007-01-24 10:26:02 51°9.978 2°38.253 8.0758 3.46211 31.916911 -2.871232
2007-01-24 10:27:02 51°9.957 2°38.174 8.0278 3.465216 31.939972 -2.871232
2007-01-24 10:28:02 51°9.937 2°38.094 8.1713 3.515752 32.30927 -2.871232
2007-01-24 10:29:02 51°9.917 2°38.015 8.1922 3.531598 32.41991 -2.871232
2007-01-24 10:30:02 51°9.897 2°37.935 8.1626 3.529112 32.398961 -2.871232
2007-01-24 10:31:02 51°9.877 2°37.854 8.1809 3.523313 32.3618 -2.871232
2007-01-24 10:32:02 51°9.857 2°37.774 8.1447 3.518859 32.33043 -2.871232
2007-01-24 10:33:02 51°9.836 2°37.697 8.1949 3.517513 32.315811 -2.871232
2007-01-24 10:34:02 51°9.814 2°37.62 8.1372 3.510988 32.2624 -2.871232
2007-01-24 10:35:02 51°9.793 2°37.541 8.1487 3.513163 32.282841 -2.871232
2007-01-24 10:36:02 51°9.772 2°37.463 8.1463 3.526523 32.384875 -2.871232
2007-01-24 10:37:02 51°9.75 2°37.384 8.1831 3.519791 32.339064 -2.871232
2007-01-24 10:38:02 51°9.73 2°37.305 8.1564 3.532426 32.422194 -2.871232
2007-01-24 10:39:02 51°9.708 2°37.227 8.1818 3.516063 32.302772 -2.871232
2007-01-24 10:40:02 51°9.686 2°37.149 8.1762 3.529216 32.396496 -2.871232
2007-01-24 10:41:02 51°9.664 2°37.072 8.1971 3.524037 32.360398 -2.871232
2007-01-24 10:42:02 51°9.643 2°36.994 8.1568 3.527766 32.38347 -2.871232
2007-01-24 10:43:02 51°9.622 2°36.916 8.1119 3.516167 32.304708 -2.871232
2007-01-24 10:44:02 51°9.603 2°36.837 8.1607 3.521345 32.344361 -2.871232
2007-01-24 10:45:02 51°9.586 2°36.761 8.1119 3.51337 32.285834 -2.871232
2007-01-24 10:46:02 51°9.579 2°36.687 7.8257 3.437362 31.741893 -2.871232
2007-01-24 10:47:02 51°9.583 2°36.622 8.0069 3.43819 31.756476 -2.871232
2007-01-24 10:48:02 51°9.587 2°36.569 8.1181 3.481888 32.06155 -2.871232
2007-01-24 10:49:02 51°9.589 2°36.523 8.2191 3.517202 32.316156 -2.871232
2007-01-24 10:50:02 51°9.589 2°36.479 8.2772 3.541851 32.481263 -2.871232
2007-01-24 10:51:02 51°9.602 2°36.402 8.1203 3.53108 32.404943 -2.871232
2007-01-24 10:52:02 51°9.642 2°36.246 8.0209 3.495144 32.155864 -2.871232
2007-01-24 10:53:02 51°9.703 2°36.038 8.0242 3.489862 32.116793 -2.871232
2007-01-24 10:54:02 51°9.786 2°35.772 7.9903 3.482717 32.087539 -2.871232
2007-01-24 10:55:02 51°9.88 2°35.484 7.9262 3.469255 31.999672 -2.871232
2007-01-24 10:56:02 51°10.034 2°35.36 7.989 3.484892 32.092258 -2.871232
2007-01-24 10:57:02 51°10.201 2°35.518 8.3875 3.530148 32.430675 -2.871232
2007-01-24 10:58:02 51°10.383 2°35.672 8.4322 3.584834 32.758785 -2.871232
2007-01-24 10:59:02 51°10.559 2°35.841 8.4158 3.588045 32.766636 -2.871232
2007-01-24 11:00:02 51°10.736 2°36.015 8.3824 3.589909 32.811237 -2.871232
2007-01-24 11:01:02 51°10.911 2°36.199 8.3696 3.589081 32.827636 -2.871232
2007-01-24 11:02:02 51°11.087 2°36.383 8.3691 3.588667 32.827858 -2.871232
2007-01-24 11:03:02 51°11.263 2°36.565 8.3811 3.587217 32.813111 -2.871232
2007-01-24 11:04:02 51°11.44 2°36.747 8.4196 3.586698 32.786579 -2.871232
2007-01-24 11:05:02 51°11.615 2°36.931 8.4438 3.589598 32.780641 -2.871232
2007-01-24 11:06:02 51°11.79 2°37.114 8.4515 3.59312 32.798702 -2.871232
2007-01-24 11:07:02 51°11.964 2°37.297 8.4525 3.595502 32.818457 -2.871232
2007-01-24 11:08:02 51°12.139 2°37.48 8.4571 3.597988 32.840145 -2.871232
2007-01-24 11:09:02 51°12.313 2°37.663 8.4588 3.600992 32.866202 -2.871232
2007-01-24 11:10:02 51°12.487 2°37.845 8.4549 3.603271 32.890216 -2.871232
2007-01-24 11:11:02 51°12.66 2°38.028 8.4474 3.604514 32.909929 -2.871232
2007-01-24 11:12:02 51°12.834 2°38.209 8.423 3.6041 32.916371 -2.871232
2007-01-24 11:13:02 51°13.01 2°38.39 8.4321 3.601925 32.912034 -2.871232
2007-01-24 11:14:02 51°13.183 2°38.572 8.465 3.605343 32.920117 -2.871232
2007-01-24 11:15:02 51°13.365 2°38.734 8.4691 3.607933 32.930429 -2.871232
2007-01-24 11:16:02 51°13.561 2°38.846 8.4778 3.609486 32.941761 -2.871232
2007-01-24 11:17:02 51°13.771 2°38.898 8.4897 3.612076 32.959163 -2.871232
2007-01-24 11:18:02 51°13.984 2°38.879 8.4991 3.614148 32.972192 -2.871232
2007-01-24 11:19:02 51°14.16 2°38.68 8.5037 3.616944 32.986356 -2.871232
2007-01-24 11:20:02 51°14.2 2°38.315 8.4883 3.617463 32.997827 -2.871232
2007-01-24 11:21:02 51°14.117 2°37.948 8.4956 3.616427 32.994426 -2.871232
2007-01-24 11:22:02 51°14.008 2°37.589 8.4926 3.61653 32.989258 -2.871232
2007-01-24 11:23:02 51°13.898 2°37.228 8.4894 3.61508 32.98787 -2.871232
2007-01-24 11:24:02 51°13.789 2°36.866 8.492 3.614666 32.983665 -2.871232
2007-01-24 11:25:02 51°13.681 2°36.504 8.4929 3.614666 32.979223 -2.871232
2007-01-24 11:26:02 51°13.573 2°36.142 8.489 3.613733 32.975093 -2.871232
2007-01-24 11:27:02 51°13.466 2°35.777 8.4826 3.61249 32.967808 -2.871232
2007-01-24 11:28:02 51°13.355 2°35.414 8.4822 3.611455 32.960848 -2.871232
2007-01-24 11:29:02 51°13.245 2°35.051 8.4757 3.610729 32.956153 -2.871232
2007-01-24 11:30:02 51°13.134 2°34.692 8.4805 3.609901 32.952182 -2.871232
2007-01-24 11:31:02 51°13.025 2°34.33 8.4808 3.610108 32.948957 -2.871232
2007-01-24 11:32:02 51°12.914 2°33.973 8.4891 3.610419 32.946784 -2.871232
2007-01-24 11:33:02 51°12.803 2°33.615 8.4951 3.610833 32.946551 -2.871232
2007-01-24 11:34:02 51°12.694 2°33.26 8.5161 3.61249 32.949167 -2.871232
2007-01-24 11:35:02 51°12.584 2°32.912 8.5428 3.615183 32.956076 -2.871232
2007-01-24 11:36:02 51°12.474 2°32.561 8.5618 3.618084 32.96508 -2.871232
2007-01-24 11:37:02 51°12.378 2°32.199 8.597 3.621709 32.978761 -2.871232
2007-01-24 11:38:02 51°12.285 2°31.831 8.6292 3.62782 33.005186 -2.871232
2007-01-24 11:39:02 51°12.192 2°31.458 8.6425 3.631653 33.023585 -2.871232
2007-01-24 11:40:02 51°12.097 2°31.086 8.6655 3.63445 33.037695 -2.871232
2007-01-24 11:41:02 51°12.001 2°30.712 8.7176 3.640562 33.064037 -2.871232
2007-01-24 11:42:02 51°11.907 2°30.336 8.7746 3.650196 33.107295 -2.871232
2007-01-24 11:43:02 51°11.813 2°29.959 8.8327 3.658068 33.136246 -2.871232
2007-01-24 11:44:02 51°11.721 2°29.581 8.8792 3.667392 33.173548 -2.871232
2007-01-24 11:45:02 51°11.628 2°29.203 8.911 3.673193 33.199208 -2.871232
2007-01-24 11:46:02 51°11.538 2°28.824 8.943 3.678787 33.222751 -2.871232
2007-01-24 11:47:02 51°11.459 2°28.438 8.9487 3.682621 33.240058 -2.871232
2007-01-24 11:48:02 51°11.388 2°28.051 8.9437 3.683553 33.246773 -2.871232
2007-01-24 11:49:02 51°11.34 2°27.656 8.9344 3.683242 33.250721 -2.871232
2007-01-24 11:50:02 51°11.295 2°27.268 8.8745 3.68117 33.246698 -2.871232
2007-01-24 11:51:02 51°11.252 2°26.888 8.8313 3.673297 33.229446 -2.871232
2007-01-24 11:52:02 51°11.206 2°26.513 8.8624 3.671433 33.2275 -2.871232
2007-01-24 11:53:02 51°11.16 2°26.141 8.9578 3.680446 33.270383 -2.871232
2007-01-24 11:54:02 51°11.123 2°25.771 9.0013 3.695675 33.33489 -2.871232
2007-01-24 11:55:02 51°11.233 2°25.475 9.0322 3.70044 33.354402 -2.871232
2007-01-24 11:56:02 51°11.438 2°25.448 9.1023 3.705828 33.368626 -2.871232
2007-01-24 11:57:02 51°11.598 2°25.649 9.1357 3.714427 33.387603 -2.871232
2007-01-24 11:58:02 51°11.756 2°25.858 9.1256 3.716291 33.393021 -2.871232
2007-01-24 11:59:02 51°11.916 2°26.066 9.119 3.714427 33.384072 -2.871232
2007-01-24 12:00:02 51°12.077 2°26.277 9.1094 3.713183 33.376045 -2.871232
2007-01-24 12:01:02 51°12.237 2°26.487 9.0954 3.710697 33.366164 -2.871232
2007-01-24 12:02:02 51°12.4 2°26.696 9.0729 3.708417 33.357468 -2.871232
2007-01-24 12:03:02 51°12.564 2°26.905 9.0525 3.703962 33.339334 -2.871232
2007-01-24 12:04:02 51°12.727 2°27.112 9.0381 3.699093 33.303784 -2.871232
2007-01-24 12:05:02 51°12.888 2°27.321 9.0349 3.699922 33.326219 -2.871232
2007-01-24 12:06:02 51°13.051 2°27.528 9.0341 3.699611 33.322219 -2.871232
2007-01-24 12:07:02 51°13.214 2°27.739 9.0399 3.700336 33.32684 -2.871232
2007-01-24 12:08:02 51°13.376 2°27.951 9.0467 3.701787 33.336079 -2.871232
2007-01-24 12:09:02 51°13.538 2°28.161 9.0432 3.703134 33.344278 -2.871232
2007-01-24 12:10:02 51°13.7 2°28.373 9.0436 3.703134 33.346045 -2.871232
2007-01-24 12:11:02 51°13.859 2°28.584 9.0339 3.702098 33.341845 -2.871232
2007-01-24 12:12:02 51°14.019 2°28.793 9.0306 3.700751 33.333645 -2.871232
2007-01-24 12:13:02 51°14.178 2°29.003 9.0209 3.699404 33.325442 -2.871232
2007-01-24 12:14:02 51°14.339 2°29.213 9.0165 3.69785 33.316044 -2.871232
2007-01-24 12:15:02 51°14.5 2°29.42 9.007 3.695778 33.304097 -2.871232
2007-01-24 12:16:02 51°14.664 2°29.624 8.9991 3.69267 33.281754 -2.871232
2007-01-24 12:17:02 51°14.829 2°29.829 8.9918 3.690701 33.26907 -2.871232
2007-01-24 12:18:02 51°14.993 2°30.036 8.9755 3.688318 33.255756 -2.871232
2007-01-24 12:19:02 51°15.158 2°30.24 8.9721 3.685936 33.245084 -2.871232
2007-01-24 12:20:02 51°15.323 2°30.443 8.9669 3.68521 33.23604 -2.871232
2007-01-24 12:21:02 51°15.488 2°30.648 8.9539 3.682931 33.218458 -2.871232
2007-01-24 12:22:02 51°15.654 2°30.852 8.9541 3.680341 33.203044 -2.871232
2007-01-24 12:23:02 51°15.821 2°31.057 8.9669 3.680237 33.20024 -2.871232
2007-01-24 12:24:02 51°15.984 2°31.269 8.9684 3.681273 33.20182 -2.871232
2007-01-24 12:25:02 51°16.148 2°31.481 8.9884 3.684278 33.219625 -2.871232
2007-01-24 12:26:02 51°16.312 2°31.692 8.9934 3.684796 33.213359 -2.871232
2007-01-24 12:27:02 51°16.474 2°31.905 9.0165 3.684899 33.209991 -2.871232
2007-01-24 12:28:02 51°16.632 2°32.116 9.0382 3.688629 33.220955 -2.871232
2007-01-24 12:29:02 51°16.791 2°32.329 9.0558 3.690079 33.218759 -2.871232
2007-01-24 12:30:02 51°16.951 2°32.54 9.0677 3.691633 33.216724 -2.871232
2007-01-24 12:31:02 51°17.109 2°32.753 9.0728 3.692669 33.218301 -2.871232
2007-01-24 12:32:02 51°17.268 2°32.965 9.0836 3.69329 33.217488 -2.871232
2007-01-24 12:33:02 51°17.43 2°33.175 9.0967 3.69443 33.218343 -2.871232
2007-01-24 12:34:02 51°17.597 2°33.374 9.1056 3.695777 33.220393 -2.871232
2007-01-24 12:35:02 51°17.762 2°33.571 9.1264 3.697227 33.220842 -2.871232
2007-01-24 12:36:02 51°17.927 2°33.768 9.132 3.698781 33.224963 -2.871232
2007-01-24 12:37:02 51°18.094 2°33.969 9.1373 3.700335 33.230838 -2.871232
2007-01-24 12:38:02 51°18.255 2°34.173 9.1442 3.701475 33.235203 -2.871232
2007-01-24 12:39:02 51°18.416 2°34.374 9.1487 3.701578 33.232727 -2.871232
2007-01-24 12:40:02 51°18.58 2°34.579 9.1623 3.701682 33.228495 -2.871232
2007-01-24 12:41:02 51°18.741 2°34.787 9.168 3.702407 33.225211 -2.871232
2007-01-24 12:42:02 51°18.903 2°34.995 9.1781 3.703029 33.222648 -2.871232
2007-01-24 12:43:02 51°19.065 2°35.202 9.1844 3.703961 33.223189 -2.871232
2007-01-24 12:44:02 51°19.227 2°35.407 9.1818 3.704272 33.228046 -2.871232
2007-01-24 12:45:02 51°19.389 2°35.615 9.181 3.704997 33.23441 -2.871232
2007-01-24 12:46:02 51°19.551 2°35.823 9.1878 3.706344 33.245226 -2.871232
2007-01-24 12:47:02 51°19.713 2°36.031 9.2031 3.70852 33.257296 -2.871232
2007-01-24 12:48:02 51°19.873 2°36.24 9.2187 3.711006 33.267199 -2.871232
2007-01-24 12:49:02 51°20.032 2°36.447 9.2239 3.71256 33.27218 -2.871232
2007-01-24 12:50:02 51°20.196 2°36.654 9.2135 3.712871 33.272649 -2.871232
2007-01-24 12:51:02 51°20.357 2°36.862 9.2081 3.71111 33.262971 -2.871232
2007-01-24 12:52:02 51°20.52 2°37.07 9.2052 3.708727 33.247963 -2.871232
2007-01-24 12:53:02 51°20.681 2°37.28 9.2005 3.706758 33.230073 -2.871232
2007-01-24 12:54:02 51°20.842 2°37.489 9.2073 3.705515 33.219419 -2.871232
2007-01-24 12:55:02 51°21.004 2°37.695 9.2024 3.705204 33.212814 -2.871232
2007-01-24 12:56:02 51°21.198 2°37.775 9.2094 3.7051 33.213532 -2.871232
2007-01-24 12:57:02 51°21.41 2°37.759 9.2269 3.706758 33.216933 -2.871232
2007-01-24 12:58:02 51°21.623 2°37.757 9.2542 3.70997 33.230575 -2.871232
2007-01-24 12:59:02 51°21.834 2°37.774 9.2718 3.714528 33.252376 -2.871232
2007-01-24 13:00:02 51°22.047 2°37.79 9.3055 3.719398 33.280754 -2.871232
2007-01-24 13:01:02 51°22.26 2°37.808 9.3397 3.725511 33.3066 -2.871232
2007-01-24 13:02:02 51°22.471 2°37.826 9.3617 3.73038 33.324418 -2.871232
2007-01-24 13:03:02 51°22.683 2°37.848 9.3663 3.732867 33.334272 -2.871232
2007-01-24 13:04:02 51°22.894 2°37.871 9.3696 3.734214 33.343289 -2.871232
2007-01-24 13:05:02 51°23.102 2°37.91 9.3819 3.735147 33.350809 -2.871232
2007-01-24 13:06:02 51°23.252 2°38.128 9.378 3.736597 33.354727 -2.871232
2007-01-24 13:07:02 51°23.397 2°38.369 9.3753 3.735975 33.359925 -2.871232
2007-01-24 13:08:02 51°23.54 2°38.613 9.3697 3.736701 33.360132 -2.871232
2007-01-24 13:09:02 51°23.672 2°38.875 9.3553 3.735665 33.363839 -2.871232
2007-01-24 13:10:02 51°23.807 2°39.138 9.3483 3.734836 33.363478 -2.871232
2007-01-24 13:11:02 51°23.945 2°39.395 9.3417 3.734007 33.363117 -2.871232
2007-01-24 13:12:02 51°24.082 2°39.654 9.3286 3.733903 33.366467 -2.871232
2007-01-24 13:13:02 51°24.222 2°39.915 9.3224 3.732453 33.364303 -2.871232
2007-01-24 13:14:02 51°24.36 2°40.172 9.3235 3.732246 33.364871 -2.871232
2007-01-24 13:15:02 51°24.498 2°40.426 9.3148 3.731831 33.362499 -2.871232
2007-01-24 13:16:02 51°24.63 2°40.693 9.3142 3.731624 33.36482 -2.871232
2007-01-24 13:17:02 51°24.757 2°40.962 9.3149 3.731417 33.365388 -2.871232
2007-01-24 13:18:02 51°24.888 2°41.229 9.3139 3.731313 33.364356 -2.871232
2007-01-24 13:19:02 51°25.018 2°41.5 9.313 3.731417 33.369773 -2.871232
2007-01-24 13:20:02 51°25.149 2°41.768 9.3088 3.732039 33.373331 -2.871232
2007-01-24 13:21:02 51°25.28 2°42.035 9.3132 3.732453 33.380967 -2.871232
2007-01-24 13:22:02 51°25.41 2°42.31 9.3104 3.733386 33.38762 -2.871232
2007-01-24 13:23:02 51°25.542 2°42.581 9.3065 3.733904 33.394534 -2.871232
2007-01-24 13:24:02 51°25.675 2°42.851 9.3198 3.734733 33.4063 -2.871232
2007-01-24 13:25:02 51°25.807 2°43.122 9.3173 3.735976 33.416048 -2.871232
2007-01-24 13:26:02 51°25.938 2°43.393 9.3054 3.73722 33.431068 -2.871232
2007-01-24 13:27:02 51°26.072 2°43.663 9.3136 3.73867 33.446396 -2.871232
2007-01-24 13:28:02 51°26.204 2°43.932 9.309 3.740121 33.463485 -2.871232
2007-01-24 13:29:02 51°26.337 2°44.2 9.2981 3.74095 33.472623 -2.871232
2007-01-24 13:30:02 51°26.427 2°44.509 9.2975 3.740121 33.466125 -2.871232
2007-01-24 13:31:02 51°26.459 2°44.85 9.2919 3.738567 33.457679 -2.871232
2007-01-24 13:32:02 51°26.507 2°45.187 9.2932 3.736391 33.445674 -2.871232
2007-01-24 13:33:02 51°26.559 2°45.522 9.2856 3.735458 33.432861 -2.871232
2007-01-24 13:34:02 51°26.609 2°45.861 9.2765 3.734319 33.424141 -2.871232
2007-01-24 13:35:02 51°26.657 2°46.2 9.2751 3.732557 33.4145 -2.871232
2007-01-24 13:36:02 51°26.702 2°46.541 9.2561 3.730589 33.400152 -2.871232
2007-01-24 13:37:02 51°26.743 2°46.886 9.2358 3.727169 33.383644 -2.871232
2007-01-24 13:38:02 51°26.782 2°47.234 9.2097 3.722714 33.362063 -2.871232
2007-01-24 13:39:02 51°26.821 2°47.579 9.2021 3.719192 33.342734 -2.871232
2007-01-24 13:40:02 51°26.862 2°47.928 9.1898 3.716809 33.330376 -2.871232
2007-01-24 13:41:02 51°26.902 2°48.274 9.1908 3.713908 33.314597 -2.871232
2007-01-24 13:42:02 51°26.941 2°48.62 9.1756 3.71225 33.302438 -2.871232
2007-01-24 13:43:02 51°26.981 2°48.968 9.155 3.709038 33.286177 -2.871232
2007-01-24 13:44:02 51°27.02 2°49.316 9.1485 3.706655 33.272036 -2.871232
2007-01-24 13:45:02 51°27.057 2°49.662 9.1169 3.703651 33.260463 -2.871232
2007-01-24 13:46:02 51°27.094 2°50.009 9.0957 3.696606 33.227805 -2.871232
2007-01-24 13:47:02 51°27.133 2°50.355 9.0725 3.69443 33.216585 -2.871232
2007-01-24 13:48:02 51°27.171 2°50.707 9.0644 3.691633 33.200017 -2.871232
2007-01-24 13:49:02 51°27.187 2°51.059 9.1029 3.690493 33.193883 -2.871232
2007-01-24 13:50:02 51°27.003 2°51.227 9.0654 3.692979 33.195923 -2.871232
2007-01-24 13:51:02 51°26.856 2°50.967 9.0327 3.686142 33.159988 -2.871232
2007-01-24 13:52:02 51°26.87 2°50.605 9.0411 3.682827 33.146114 -2.871232
2007-01-24 13:53:02 51°26.933 2°50.252 9.0631 3.686453 33.172764 -2.871232
2007-01-24 13:54:02 51°27.006 2°49.908 9.0677 3.688939 33.188872 -2.871232
2007-01-24 13:55:02 51°27.052 2°49.621 9.0875 3.69184 33.204728 -2.871232
2007-01-24 13:56:02 51°27.04 2°49.452 9.0918 3.695362 33.225916 -2.871232
2007-01-24 13:57:02 51°27.035 2°49.337 9.1001 3.697435 33.236977 -2.871232
2007-01-24 13:58:02 51°26.94 2°49.101 9.1215 3.698574 33.240465 -2.871232
2007-01-24 13:59:02 51°26.786 2°48.815 9.1326 3.701164 33.248788 -2.871232
2007-01-24 14:00:02 51°26.625 2°48.532 9.1477 3.704583 33.263631 -2.871232
2007-01-24 14:01:02 51°26.484 2°48.226 9.1499 3.706033 33.271096 -2.871232
2007-01-24 14:02:02 51°26.377 2°47.894 9.1761 3.708106 33.287408 -2.871232
2007-01-24 14:03:02 51°26.273 2°47.561 9.1809 3.712146 33.304918 -2.871232
2007-01-24 14:04:02 51°26.17 2°47.225 9.2058 3.714633 33.320081 -2.871232
2007-01-24 14:05:02 51°26.068 2°46.893 9.2248 3.718881 33.340511 -2.871232
2007-01-24 14:06:02 51°25.917 2°46.648 9.2312 3.722093 33.363773 -2.871232
2007-01-24 14:07:02 51°25.695 2°46.742 9.2428 3.724061 33.37814 -2.871232
2007-01-24 14:08:02 51°25.46 2°46.8 9.2431 3.725719 33.377969 -2.871232
2007-01-24 14:09:02 51°25.22 2°46.851 9.2383 3.72375 33.368004 -2.871232
2007-01-24 14:10:02 51°24.984 2°46.891 9.2308 3.722403 33.359841 -2.871232
2007-01-24 14:11:02 51°24.749 2°46.931 9.2208 3.720228 33.342527 -2.871232
2007-01-24 14:12:02 51°24.515 2°46.973 9.1962 3.71743 33.323399 -2.871232
2007-01-24 14:13:02 51°24.285 2°47.012 9.125 3.710178 33.287895 -2.871232
2007-01-24 14:14:02 51°24.051 2°47.049 9.0511 3.697124 33.232988 -2.871232
2007-01-24 14:15:02 51°23.817 2°47.093 8.9878 3.684899 33.181816 -2.871232
2007-01-24 14:16:02 51°23.585 2°47.138 8.9526 3.67744 33.159828 -2.871232
2007-01-24 14:17:02 51°23.354 2°47.186 8.9475 3.674021 33.146653 -2.871232
2007-01-24 14:18:02 51°23.12 2°47.232 8.9397 3.672571 33.138257 -2.871232
2007-01-24 14:19:02 51°22.886 2°47.273 8.9377 3.672467 33.135456 -2.871232
2007-01-24 14:20:02 51°22.654 2°47.319 8.9291 3.670603 33.129942 -2.871232
2007-01-24 14:21:02 51°22.422 2°47.372 8.9364 3.671431 33.130338 -2.871232
2007-01-24 14:22:02 51°22.189 2°47.422 8.9553 3.672985 33.131851 -2.871232
2007-01-24 14:23:02 51°21.959 2°47.471 8.9571 3.67371 33.129447 -2.871232
2007-01-24 14:24:02 51°21.731 2°47.499 8.9231 3.668634 33.098735 -2.871232
2007-01-24 14:25:02 51°21.504 2°47.478 8.9163 3.662729 33.057916 -2.871232
2007-01-24 14:26:02 51°21.279 2°47.46 8.9078 3.659414 33.034293 -2.871232
2007-01-24 14:27:02 51°21.056 2°47.437 8.7488 3.653923 33.000226 -2.871232
2007-01-24 14:28:02 51°20.83 2°47.414 8.6832 3.611659 32.747687 -2.871232
2007-01-24 14:29:02 51°20.611 2°47.362 8.6152 3.602336 32.6817 -2.871232
2007-01-24 14:30:02 51°20.403 2°47.246 8.4948 3.578202 32.511531 -2.871232
2007-01-24 14:31:02 51°20.196 2°47.127 8.4788 3.53988 32.239062 -2.871232
2007-01-24 14:32:02 51°19.99 2°46.999 8.4644 3.539155 32.240411 -2.871232
2007-01-24 14:33:02 51°19.788 2°46.859 8.4584 3.532838 32.189491 -2.871232
2007-01-24 14:34:02 51°19.587 2°46.723 8.4566 3.529213 32.15627 -2.871232
2007-01-24 14:35:02 51°19.39 2°46.571 8.4952 3.532941 32.176661 -2.871232
2007-01-24 14:36:02 51°19.191 2°46.424 8.5092 3.544748 32.263116 -2.871232
2007-01-24 14:37:02 51°18.993 2°46.281 8.5021 3.546716 32.288232 -2.871232
2007-01-24 14:38:02 51°18.796 2°46.132 8.5019 3.545783 32.26751 -2.871232
2007-01-24 14:39:02 51°18.6 2°45.991 8.5291 3.544333 32.258927 -2.871232
2007-01-24 14:40:02 51°18.4 2°45.85 8.529 3.551376 32.302334 -2.871232
2007-01-24 14:41:02 51°18.206 2°45.7 8.5457 3.553551 32.322578 -2.871232
2007-01-24 14:42:02 51°18.015 2°45.546 8.5588 3.555933 32.33796 -2.871232
2007-01-24 14:43:02 51°17.82 2°45.396 8.5393 3.555726 32.338475 -2.871232
2007-01-24 14:44:02 51°17.627 2°45.239 8.5361 3.554587 32.336525 -2.871232
2007-01-24 14:45:02 51°17.436 2°45.089 8.5186 3.553551 32.332143 -2.871232
2007-01-24 14:46:02 51°17.247 2°44.928 8.5231 3.550651 32.313256 -2.871232
2007-01-24 14:47:02 51°17.057 2°44.766 8.5119 3.549823 32.306616 -2.871232
2007-01-24 14:48:02 51°16.869 2°44.6 8.5011 3.549926 32.314621 -2.871232
2007-01-24 14:49:02 51°16.682 2°44.439 8.4994 3.554173 32.356705 -2.871232
2007-01-24 14:50:02 51°16.494 2°44.28 8.455 3.554691 32.38548 -2.871232
2007-01-24 14:51:02 51°16.305 2°44.119 8.4562 3.553552 32.387033 -2.871232
2007-01-24 14:52:02 51°16.102 2°44.017 8.4108 3.553345 32.414636 -2.871232
2007-01-24 14:53:02 51°15.883 2°44.049 8.3632 3.552517 32.448252 -2.871232
2007-01-24 14:54:02 51°15.7 2°44.266 8.3469 3.555004 32.514763 -2.871232
2007-01-24 14:55:02 51°15.603 2°44.619 8.334 3.556764 32.53706 -2.871232
2007-01-24 14:56:02 51°15.586 2°45.008 8.3363 3.562772 32.612255 -2.871232
2007-01-24 14:57:02 51°15.647 2°45.394 8.3306 3.565361 32.634183 -2.871232
2007-01-24 14:58:02 51°15.689 2°45.785 8.3434 3.564533 32.628403 -2.871232
2007-01-24 14:59:02 51°15.714 2°46.187 8.382 3.570023 32.68072 -2.871232
2007-01-24 15:00:02 51°15.709 2°46.59 8.441 3.588459 32.803588 -2.871232
2007-01-24 15:01:02 51°15.692 2°46.998 8.4064 3.588563 32.793127 -2.871232
2007-01-24 15:02:02 51°15.679 2°47.409 8.3501 3.585973 32.77567 -2.871232
2007-01-24 15:03:02 51°15.663 2°47.811 8.378 3.580484 32.775658 -2.871232
2007-01-24 15:04:02 51°15.647 2°48.214 8.3254 3.589288 32.83063 -2.871232
2007-01-24 15:05:02 51°15.63 2°48.619 8.2512 3.56443 32.672446 -2.871232
2007-01-24 15:06:02 51°15.613 2°49.02 8.2092 3.544958 32.510281 -2.871232
2007-01-24 15:07:02 51°15.602 2°49.419 8.0563 3.494522 32.104008 -2.871232
2007-01-24 15:08:02 51°15.589 2°49.819 7.9739 3.450408 31.742512 -2.871232
2007-01-24 15:09:02 51°15.582 2°50.217 7.9935 3.405366 31.354085 -2.871232
2007-01-24 15:10:02 51°15.574 2°50.548 7.9227 3.405262 31.358175 -2.871232
2007-01-24 15:11:02 51°15.557 2°50.902 7.9843 3.384658 31.181921 -2.871232
2007-01-24 15:12:02 51°15.481 2°51.244 7.9862 3.410439 31.399897 -2.871232
2007-01-24 15:13:02 51°15.39 2°51.575 7.9742 3.409197 31.386348 -2.871232
2007-01-24 15:14:02 51°15.296 2°51.9 7.9904 3.413338 31.41147 -2.871232
2007-01-24 15:15:02 51°15.196 2°52.241 8.0036 3.410853 31.385243 -2.871232
2007-01-24 15:16:02 51°15.094 2°52.59 7.9139 3.390456 31.226628 -2.871232
2007-01-24 15:17:02 51°14.993 2°52.944 7.9093 3.376894 31.122203 -2.871232
2007-01-24 15:18:02 51°14.888 2°53.286 7.9037 3.383727 31.174108 -2.871232
2007-01-24 15:19:02 51°14.817 2°53.567 7.8638 3.383727 31.178378 -2.871232
2007-01-24 15:20:02 51°14.804 2°53.84 7.8355 3.362813 31.010641 -2.871232
2007-01-24 15:21:02 51°14.83 2°54.031 7.8294 3.355981 30.958625 -2.871232
2007-01-24 15:22:02 51°14.862 2°54.154 7.8633 3.359087 30.995496 -2.871232
2007-01-24 15:23:02 51°14.853 2°54.274 7.8538 3.373788 31.113484 -2.871232
2007-01-24 15:24:02 51°14.766 2°54.505 7.8871 3.376583 31.146343 -2.871232
2007-01-24 15:25:02 51°14.609 2°54.766 7.8401 3.376273 31.170527 -2.871232
2007-01-24 15:26:02 51°14.432 2°54.999 7.7519 3.379587 31.253362 -2.871232
2007-01-24 15:27:02 51°14.277 2°55.239 7.7359 3.387663 31.348269 -2.871232
2007-01-24 15:28:02 51°14.16 2°55.377 7.5894 3.138312 28.896463 -2.871232
2007-01-24 15:29:02 51°14.069 2°55.451 7.61 3.019637 27.729829 -2.871232
2007-01-24 15:30:02 51°13.985 2°55.514 7.6716 2.954053 27.062925 -2.871232
2007-01-24 15:31:02 51°13.909 2°55.572 7.6064 2.822189 25.767108 -2.871232
2007-01-24 15:32:02 51°13.828 2°55.632 7.6208 2.851868 26.034846 -2.871232
2007-01-24 15:33:02 51°13.752 2°55.716 7.6449 2.784344 25.388973 -2.871232
2007-01-24 15:34:02 51°13.696 2°55.81 7.4987 2.414632 21.725363 -2.871232
2007-01-24 15:35:02 51°13.65 2°55.911 7.533 2.482413 22.403713 -2.871232
2007-01-24 15:36:02 51°13.615 2°56.006 7.6041 2.720344 24.772805 -2.871232
2007-01-24 15:37:02 51°13.602 2°56.076 7.3956 2.687159 24.473105 -2.871232
2007-01-24 15:38:03 51°13.597 2°56.092 7.4927 2.637851 24.013775 -2.871232
2007-01-24 15:39:03 51°13.598 2°56.092 7.5018 2.708766 24.701241 -2.871232
2007-01-24 15:40:03 51°13.598 2°56.094 7.4817 2.76015 25.204723 -2.871232